createdAt,value
2023-02-19T00:06:14.149Z,100697.13
2023-02-19T00:16:21.853Z,100677.88
2023-02-19T00:26:26.336Z,100659.03
2023-02-19T00:36:32.397Z,100659.34
2023-02-19T00:46:39.830Z,100671.72
2023-02-19T00:56:44.929Z,100634.91
2023-02-19T01:06:49.051Z,100664.47
2023-02-19T01:16:54.053Z,100629.25
2023-02-19T01:26:59.673Z,100636.94
2023-02-19T01:37:04.712Z,100625.38
2023-02-19T01:47:08.445Z,100626.44
2023-02-19T01:57:23.479Z,100610.75
2023-02-19T02:07:45.462Z,100600.41
2023-02-19T02:17:58.309Z,100593.06
2023-02-19T02:28:21.614Z,100583.47
2023-02-19T02:38:30.476Z,100573.88
2023-02-19T02:48:38.887Z,100575.75
2023-02-19T02:58:44.429Z,100576.91
2023-02-19T03:08:54.472Z,100551.25
2023-02-19T03:19:18.152Z,100561.94
2023-02-19T03:29:26.076Z,100566.06
2023-02-19T03:39:32.019Z,100559.22
2023-02-19T03:49:43.346Z,100559.69
2023-02-19T03:59:55.116Z,100585.38
2023-02-19T04:09:58.995Z,100591.97
2023-02-19T04:20:08.551Z,100587.03
2023-02-19T04:30:15.369Z,100609.22
2023-02-19T04:40:21.906Z,100611.53
2023-02-19T04:50:26.351Z,100609.78
2023-02-19T05:00:31.637Z,100635.19
2023-02-19T05:10:35.737Z,100635.72
2023-02-19T05:20:40.619Z,100629.50
2023-02-19T05:30:44.471Z,100636.41
2023-02-19T05:40:49.538Z,100646.00
2023-02-19T05:50:53.182Z,100650.97
2023-02-19T06:00:58.414Z,100668.44
2023-02-19T06:11:02.014Z,100692.16
2023-02-19T06:21:10.100Z,100695.53
2023-02-19T06:31:14.927Z,100709.78
2023-02-19T06:41:20.494Z,100707.78
2023-02-19T06:51:28.829Z,100737.56
2023-02-19T07:01:35.540Z,100746.88
2023-02-19T07:11:43.564Z,100764.03
2023-02-19T07:21:48.579Z,100766.91
2023-02-19T07:31:52.204Z,100787.00
2023-02-19T07:41:57.146Z,100799.13
2023-02-19T07:52:00.911Z,100810.38
2023-02-19T08:02:23.474Z,100812.97
2023-02-19T08:12:44.656Z,100834.38
2023-02-19T08:22:49.553Z,100847.34
2023-02-19T08:32:53.314Z,100880.63
2023-02-19T08:43:04.276Z,100914.56
2023-02-19T08:53:08.293Z,100909.66
2023-02-19T09:03:13.227Z,100923.16
2023-02-19T09:13:16.870Z,100927.19
2023-02-19T09:23:21.829Z,100946.03
2023-02-19T09:33:25.493Z,100939.44
2023-02-19T09:43:30.965Z,100947.84
2023-02-19T09:53:43.272Z,100948.06
2023-02-19T10:03:49.740Z,100967.94
2023-02-19T10:14:09.428Z,100990.41
2023-02-19T10:24:29.824Z,100999.97
2023-02-19T10:34:33.558Z,101002.72
2023-02-19T10:44:45.588Z,101022.28
2023-02-19T10:54:53.738Z,101036.25
2023-02-19T11:05:17.335Z,101056.72
2023-02-19T11:15:24.351Z,101071.13
2023-02-19T11:25:29.922Z,101081.06
2023-02-19T11:35:33.554Z,101078.22
2023-02-19T11:45:47.962Z,101061.25
2023-02-19T11:56:12.151Z,101062.66
2023-02-19T12:06:28.968Z,101052.88
2023-02-19T12:16:41.195Z,101050.81
2023-02-19T12:27:01.930Z,101023.94
2023-02-19T12:37:27.183Z,101056.72
2023-02-19T12:47:40.123Z,101051.22
2023-02-19T12:57:44.275Z,101057.22
2023-02-19T13:07:58.264Z,101053.41
2023-02-19T13:18:06.489Z,101039.06
2023-02-19T13:28:27.406Z,101049.31
2023-02-19T13:38:31.309Z,101055.72
2023-02-19T13:48:38.505Z,101050.66
2023-02-19T13:59:02.377Z,101058.31
2023-02-19T14:09:46.618Z,101065.88
2023-02-19T14:20:01.885Z,101079.94
2023-02-19T14:30:12.832Z,101091.31
2023-02-19T14:40:23.211Z,101095.38
2023-02-19T14:50:31.940Z,101090.56
2023-02-19T15:00:38.561Z,101072.31
2023-02-19T15:10:44.655Z,101082.69
2023-02-19T15:20:49.100Z,101106.63
2023-02-19T15:31:11.697Z,101114.75
2023-02-19T15:41:22.936Z,101137.47
2023-02-19T15:51:36.616Z,101134.53
2023-02-19T16:01:43.625Z,101120.53
2023-02-19T16:11:53.704Z,101099.59
2023-02-19T16:21:58.366Z,101107.44
2023-02-19T16:32:07.418Z,101132.03
2023-02-19T16:42:15.444Z,101129.63
2023-02-19T16:52:20.635Z,101154.00
2023-02-19T17:02:26.008Z,101174.41
2023-02-19T17:12:31.030Z,101184.84
2023-02-19T17:22:34.656Z,101211.47
2023-02-19T17:32:39.833Z,101231.34
2023-02-19T17:42:44.364Z,101238.44
2023-02-19T17:52:49.459Z,101243.41
2023-02-19T18:02:53.748Z,101259.91
2023-02-19T18:12:58.755Z,101273.09
2023-02-19T18:23:02.785Z,101306.00
2023-02-19T18:33:10.677Z,101297.63
2023-02-19T18:43:14.727Z,101296.84
2023-02-19T18:53:19.729Z,101289.88
2023-02-19T19:03:23.721Z,101292.47
2023-02-19T19:13:28.678Z,101281.56
2023-02-19T19:23:32.822Z,101298.56
2023-02-19T19:33:37.778Z,101305.09
2023-02-19T19:43:41.513Z,101308.16
2023-02-19T19:53:48.884Z,101313.06
2023-02-19T20:03:52.748Z,101323.44
2023-02-19T20:13:57.848Z,101319.63
2023-02-19T20:24:02.349Z,101342.19
2023-02-19T20:34:07.609Z,101355.44
2023-02-19T20:44:11.394Z,101371.78
2023-02-19T20:54:18.719Z,101373.03
2023-02-19T21:04:22.366Z,101351.28
2023-02-19T21:14:27.584Z,101362.66
2023-02-19T21:24:32.716Z,101375.34
2023-02-19T21:34:37.975Z,101387.91
2023-02-19T21:44:43.166Z,101391.44
2023-02-19T21:54:48.266Z,101393.84
2023-02-19T22:04:56.150Z,101401.25
2023-02-19T22:15:01.321Z,101401.38
2023-02-19T22:25:05.543Z,101419.06
2023-02-19T22:35:10.650Z,101427.63
2023-02-19T22:45:15.321Z,101425.50
2023-02-19T22:55:20.544Z,101413.25
2023-02-19T23:05:25.425Z,101406.38
2023-02-19T23:15:30.510Z,101413.81
2023-02-19T23:25:34.565Z,101421.81
2023-02-19T23:35:39.514Z,101451.84
2023-02-19T23:45:43.544Z,101441.84
2023-02-19T23:55:48.521Z,101427.22
